createdAt,value
2019-04-07T00:01:09.129Z,50.60
2019-04-07T00:03:37.707Z,49.90
2019-04-07T00:06:06.591Z,50.17
2019-04-07T00:08:35.347Z,52.53
2019-04-07T00:11:04.528Z,48.40
2019-04-07T00:13:33.664Z,52.57
2019-04-07T00:16:02.293Z,49.90
2019-04-07T00:18:30.875Z,49.03
2019-04-07T00:20:59.488Z,49.50
2019-04-07T00:23:28.489Z,49.67
2019-04-07T00:25:57.620Z,51.37
2019-04-07T00:28:26.419Z,50.97
2019-04-07T00:30:54.986Z,49.50
2019-04-07T00:33:23.595Z,49.97
2019-04-07T00:35:52.170Z,49.33
2019-04-07T00:38:22.837Z,49.30
2019-04-07T00:40:51.563Z,51.67
2019-04-07T00:43:20.120Z,51.80
2019-04-07T00:45:49.206Z,47.17
2019-04-07T00:48:17.958Z,52.00
2019-04-07T00:50:46.998Z,49.90
2019-04-07T00:53:15.718Z,52.70
2019-04-07T00:55:44.294Z,48.73
2019-04-07T00:58:12.861Z,47.13
2019-04-07T01:00:42.471Z,52.17
2019-04-07T01:03:11.531Z,46.03
2019-04-07T01:05:43.277Z,48.57
2019-04-07T01:08:11.723Z,48.90
2019-04-07T01:10:40.528Z,46.50
2019-04-07T01:13:09.271Z,48.77
2019-04-07T01:15:38.389Z,48.47
2019-04-07T01:18:07.759Z,48.00
2019-04-07T01:20:36.375Z,47.33
2019-04-07T01:23:05.454Z,48.13
2019-04-07T01:25:34.560Z,46.83
2019-04-07T01:28:03.240Z,48.13
2019-04-07T01:30:31.803Z,47.50
2019-04-07T01:33:00.913Z,49.20
2019-04-07T01:35:30.342Z,48.90
2019-04-07T01:37:59.816Z,47.53
2019-04-07T01:40:28.867Z,48.80
2019-04-07T01:43:06.474Z,45.57
2019-04-07T01:46:13.049Z,47.43
2019-04-07T01:49:01.054Z,48.50
2019-04-07T01:51:41.113Z,49.50
2019-04-07T01:54:20.998Z,46.03
2019-04-07T01:57:07.249Z,48.20
2019-04-07T01:59:58.188Z,47.23
2019-04-07T02:02:41.266Z,49.27
2019-04-07T02:05:35.284Z,47.63
2019-04-07T02:08:14.542Z,45.70
2019-04-07T02:11:08.082Z,45.83
2019-04-07T02:13:53.283Z,46.77
2019-04-07T02:16:38.354Z,49.23
2019-04-07T02:19:28.793Z,43.80
2019-04-07T02:22:03.875Z,45.83
2019-04-07T02:24:49.891Z,45.10
2019-04-07T02:27:38.411Z,44.40
2019-04-07T02:30:29.066Z,46.63
2019-04-07T02:33:10.750Z,45.13
2019-04-07T02:36:14.486Z,44.10
2019-04-07T02:38:46.575Z,44.20
2019-04-07T02:41:32.725Z,43.50
2019-04-07T02:44:13.506Z,45.53
2019-04-07T02:47:10.171Z,44.87
2019-04-07T02:50:01.532Z,44.53
2019-04-07T02:52:54.818Z,47.80
2019-04-07T02:55:35.599Z,44.23
2019-04-07T02:58:25.518Z,40.77
2019-04-07T03:01:06.873Z,43.07
2019-04-07T03:03:50.718Z,45.73
2019-04-07T03:06:43.204Z,44.77
2019-04-07T03:09:23.321Z,46.57
2019-04-07T03:12:21.149Z,43.50
2019-04-07T03:14:58.714Z,43.20
2019-04-07T03:17:32.299Z,42.23
2019-04-07T03:20:25.920Z,43.37
2019-04-07T03:23:12.785Z,43.73
2019-04-07T03:26:05.060Z,44.60
2019-04-07T03:28:55.775Z,44.60
2019-04-07T03:31:38.860Z,46.57
2019-04-07T03:34:15.215Z,44.30
2019-04-07T03:37:15.118Z,43.57
2019-04-07T03:39:42.495Z,44.47
2019-04-07T03:42:19.665Z,43.80
2019-04-07T03:45:10.133Z,45.00
2019-04-07T03:47:52.519Z,42.97
2019-04-07T03:50:36.846Z,40.87
2019-04-07T03:53:36.205Z,43.07
2019-04-07T03:56:10.387Z,43.27
2019-04-07T03:58:56.486Z,42.07
2019-04-07T04:01:43.612Z,41.53
2019-04-07T04:04:31.087Z,39.37
2019-04-07T04:07:22.367Z,41.20
2019-04-07T04:10:08.523Z,41.30
2019-04-07T04:12:54.763Z,38.80
2019-04-07T04:15:31.275Z,39.27
2019-04-07T04:18:01.077Z,39.97
2019-04-07T04:20:30.261Z,39.77
2019-04-07T04:22:59.703Z,41.37
2019-04-07T04:25:28.514Z,40.70
2019-04-07T04:27:57.072Z,39.43
2019-04-07T04:30:25.753Z,39.53
2019-04-07T04:32:55.374Z,40.17
2019-04-07T04:35:24.532Z,39.77
2019-04-07T04:37:56.166Z,38.03
2019-04-07T04:40:25.074Z,39.30
2019-04-07T04:42:53.764Z,38.80
2019-04-07T04:45:22.694Z,39.47
2019-04-07T04:47:51.643Z,39.30
2019-04-07T04:50:21.098Z,39.80
2019-04-07T04:52:49.813Z,42.10
2019-04-07T04:55:18.908Z,39.60
2019-04-07T04:57:47.950Z,40.87
2019-04-07T05:00:17.779Z,39.30
2019-04-07T05:02:47.159Z,42.27
2019-04-07T05:05:15.754Z,39.27
2019-04-07T05:07:53.993Z,38.87
2019-04-07T05:10:14.619Z,39.67
2019-04-07T05:12:43.585Z,39.80
2019-04-07T05:15:12.169Z,39.17
2019-04-07T05:17:41.925Z,38.73
2019-04-07T05:20:10.945Z,40.87
2019-04-07T05:22:39.615Z,41.60
2019-04-07T05:25:08.559Z,41.40
2019-04-07T05:27:37.358Z,41.63
2019-04-07T05:30:06.656Z,39.23
2019-04-07T05:32:35.368Z,44.27
2019-04-07T05:35:04.356Z,40.43
2019-04-07T05:37:33.009Z,40.20
2019-04-07T05:40:03.524Z,41.87
2019-04-07T05:42:32.701Z,42.20
2019-04-07T05:45:01.460Z,42.83
2019-04-07T05:47:31.858Z,41.47
2019-04-07T05:50:02.969Z,41.20
2019-04-07T05:52:30.677Z,42.63
2019-04-07T05:54:59.230Z,44.63
2019-04-07T05:57:30.765Z,40.83
2019-04-07T05:59:58.113Z,43.93
2019-04-07T06:02:27.382Z,40.93
2019-04-07T06:04:58.674Z,45.23
2019-04-07T06:07:31.246Z,42.80
2019-04-07T06:09:57.671Z,43.73
2019-04-07T06:12:26.254Z,43.17
2019-04-07T06:14:55.183Z,45.43
2019-04-07T06:17:26.340Z,43.53
2019-04-07T06:19:54.180Z,45.33
2019-04-07T06:22:23.574Z,45.37
2019-04-07T06:24:52.275Z,44.37
2019-04-07T06:27:20.829Z,43.70
2019-04-07T06:29:50.088Z,45.80
2019-04-07T06:32:19.281Z,47.03
2019-04-07T06:34:49.917Z,46.13
2019-04-07T06:37:18.737Z,45.87
2019-04-07T06:39:50.838Z,47.27
2019-04-07T06:42:17.730Z,42.30
2019-04-07T06:44:46.283Z,40.87
2019-04-07T17:28:00.438Z,14.63
2019-04-07T17:30:28.989Z,14.13
2019-04-07T17:32:58.591Z,15.00
2019-04-07T17:35:28.456Z,14.30
2019-04-07T17:38:03.568Z,16.53
2019-04-07T17:40:45.208Z,17.27
2019-04-07T17:43:40.576Z,31.93
2019-04-07T17:46:25.897Z,24.07
2019-04-07T17:49:13.566Z,16.00
2019-04-07T17:51:53.432Z,15.40
2019-04-07T17:54:42.835Z,15.13
2019-04-07T17:57:36.625Z,16.23
2019-04-07T18:00:43.422Z,14.50
2019-04-07T18:03:43.979Z,14.53
2019-04-07T18:06:33.460Z,14.00
2019-04-07T18:09:30.876Z,14.33
2019-04-07T18:12:19.847Z,13.80
2019-04-07T18:15:11.666Z,13.20
2019-04-07T18:18:10.212Z,14.00
2019-04-07T18:20:48.597Z,15.70
2019-04-07T18:23:42.277Z,14.17
2019-04-07T18:26:35.385Z,12.83
2019-04-07T18:29:35.162Z,14.13
2019-04-07T18:32:26.400Z,14.33
2019-04-07T18:35:08.996Z,12.33
2019-04-07T18:38:02.623Z,13.50
2019-04-07T18:40:55.816Z,14.03
2019-04-07T18:43:50.443Z,12.97
2019-04-07T18:46:51.569Z,13.40
2019-04-07T18:49:35.447Z,13.37
2019-04-07T18:52:35.799Z,13.97
2019-04-07T18:55:27.318Z,12.90
2019-04-07T18:58:15.336Z,12.67
2019-04-07T19:01:07.854Z,14.60
2019-04-07T19:03:53.372Z,13.27
2019-04-07T19:06:48.483Z,13.40
2019-04-07T19:09:39.237Z,12.83
2019-04-07T19:12:24.803Z,12.93
2019-04-07T19:15:21.426Z,14.90
2019-04-07T19:18:23.726Z,14.10
2019-04-07T19:21:13.403Z,13.37
2019-04-07T19:24:18.381Z,14.43
2019-04-07T19:27:13.487Z,13.43
2019-04-07T19:30:11.594Z,12.57
2019-04-07T19:33:00.541Z,14.53
2019-04-07T19:35:47.284Z,14.70
2019-04-07T19:38:36.663Z,13.50
2019-04-07T19:41:29.409Z,13.13
2019-04-07T19:44:34.814Z,13.20
2019-04-07T19:47:06.572Z,13.27
2019-04-07T19:49:54.370Z,13.17
2019-04-07T19:52:48.469Z,14.63
2019-04-07T19:55:36.718Z,12.70
2019-04-07T19:58:24.599Z,13.17
2019-04-07T20:01:12.745Z,13.37
2019-04-07T20:03:51.792Z,13.73
2019-04-07T20:06:38.326Z,14.10
2019-04-07T20:09:27.757Z,13.13
2019-04-07T20:12:37.967Z,15.03
2019-04-07T20:15:24.177Z,13.87
2019-04-07T20:18:10.506Z,14.50
2019-04-07T20:20:53.602Z,14.33
2019-04-07T20:23:47.972Z,13.80
2019-04-07T20:26:45.138Z,13.53
2019-04-07T20:29:19.729Z,14.90
2019-04-07T20:32:04.700Z,15.27
2019-04-07T20:34:45.663Z,14.87
2019-04-07T20:37:26.078Z,16.10
2019-04-07T20:40:05.227Z,16.43
2019-04-07T20:42:54.396Z,17.90
2019-04-07T20:45:52.105Z,16.93
2019-04-07T20:48:52.115Z,16.77
2019-04-07T20:51:29.613Z,17.70
2019-04-07T20:54:15.292Z,17.57
2019-04-07T20:57:19.258Z,17.40
2019-04-07T21:00:05.588Z,19.20
2019-04-07T21:03:06.452Z,19.67
2019-04-07T21:05:50.481Z,18.60
2019-04-07T21:08:50.542Z,19.20
2019-04-07T21:11:37.665Z,17.73
2019-04-07T21:14:12.564Z,17.63
2019-04-07T21:17:10.628Z,17.40
2019-04-07T21:19:58.857Z,20.17
2019-04-07T21:22:53.825Z,19.73
2019-04-07T21:25:41.329Z,18.27
2019-04-07T21:28:21.950Z,19.00
2019-04-07T21:31:17.841Z,18.50
2019-04-07T21:34:14.761Z,18.67
2019-04-07T21:37:21.847Z,16.77
2019-04-07T21:40:13.225Z,17.43
2019-04-07T21:42:55.157Z,18.77
2019-04-07T21:45:38.986Z,18.90
2019-04-07T21:48:28.595Z,19.73
2019-04-07T21:51:15.538Z,17.00
2019-04-07T21:53:54.054Z,16.60
2019-04-07T21:56:36.930Z,16.57
2019-04-07T21:59:37.454Z,16.30
2019-04-07T22:02:29.313Z,17.43
2019-04-07T22:05:32.838Z,15.90
2019-04-07T22:08:16.991Z,16.30
2019-04-07T22:10:43.104Z,15.73
2019-04-07T22:13:12.318Z,16.50
2019-04-07T22:15:47.801Z,17.50
2019-04-07T22:18:12.038Z,16.50
2019-04-07T22:20:41.066Z,16.80
2019-04-07T22:23:10.162Z,16.13
2019-04-07T22:25:51.254Z,16.60
2019-04-07T22:28:20.741Z,16.80
2019-04-07T22:30:50.927Z,16.37
2019-04-07T22:33:23.005Z,15.73
2019-04-07T22:35:51.272Z,16.13
2019-04-07T22:38:23.233Z,16.80
2019-04-07T22:40:52.129Z,17.60
2019-04-07T22:43:21.513Z,15.77
2019-04-07T22:45:58.843Z,16.43
2019-04-07T22:48:25.272Z,15.57
2019-04-07T22:50:52.076Z,15.80
2019-04-07T22:53:22.314Z,16.47
2019-04-07T22:55:52.655Z,16.33
2019-04-07T22:58:22.215Z,16.30
2019-04-07T23:00:52.158Z,16.30
2019-04-07T23:03:21.358Z,16.90
2019-04-07T23:05:51.296Z,17.53
2019-04-07T23:08:20.847Z,17.07
2019-04-07T23:10:50.907Z,16.83
2019-04-07T23:13:20.178Z,15.33
2019-04-07T23:15:50.272Z,16.57
2019-04-07T23:18:20.685Z,18.43
2019-04-07T23:20:49.983Z,16.70
2019-04-07T23:23:19.034Z,17.13
2019-04-07T23:25:48.010Z,16.77
2019-04-07T23:28:17.074Z,16.87
2019-04-07T23:30:47.123Z,16.07
2019-04-07T23:33:16.218Z,15.37
2019-04-07T23:35:45.281Z,17.17
2019-04-07T23:38:14.318Z,16.43
2019-04-07T23:40:43.362Z,16.57
2019-04-07T23:43:13.195Z,17.03
2019-04-07T23:45:42.418Z,17.40
2019-04-07T23:48:11.485Z,17.93
2019-04-07T23:50:41.146Z,16.63
2019-04-07T23:53:47.095Z,18.17
2019-04-07T23:56:16.479Z,16.83
2019-04-07T23:58:45.657Z,17.50
